Time;durP1;ratioP1;P1;durP2;ratioP2;P2;SDS_P1;SDS_P2;PMS_P1;PMS_P2;Temp;Humidity;BMP_temperature;BMP_pressure;BME280_temperature;BME280_humidity;BME280_pressure;Samples;Min_cycle;Max_cycle;Signal;HPM_P1;HPM_P2
2022/05/22 00:00:12;;;;;;;9.50;2.27;;;11.80;99.90;;;;;;5096356;28;20741;-81
2022/05/22 00:02:40;;;;;;;3.97;1.67;;;11.70;99.90;;;;;;5096014;28;20189;-81
2022/05/22 00:05:06;;;;;;;6.93;1.60;;;11.60;99.90;;;;;;5096033;28;20938;-81
2022/05/22 00:07:32;;;;;;;10.87;2.00;;;11.60;99.90;;;;;;5096045;28;20500;-82
2022/05/22 00:09:57;;;;;;;6.23;1.53;;;11.50;99.90;;;;;;5096089;28;20451;-81
2022/05/22 00:12:23;;;;;;;4.77;1.80;;;11.40;99.90;;;;;;5077919;28;20227;-80
2022/05/22 00:14:48;;;;;;;3.70;1.57;;;11.40;99.90;;;;;;5095945;28;20185;-78
2022/05/22 00:17:14;;;;;;;8.43;1.80;;;11.30;99.90;;;;;;5095491;28;20176;-81
2022/05/22 00:19:39;;;;;;;5.47;1.80;;;11.30;99.90;;;;;;5095884;28;20631;-81
2022/05/22 00:22:06;;;;;;;6.17;1.67;;;11.30;99.90;;;;;;5095841;28;20169;-80
2022/05/22 00:24:32;;;;;;;9.07;2.33;;;11.20;99.90;;;;;;5095658;28;20211;-82
2022/05/22 00:27:02;;;;;;;6.70;1.63;;;11.20;99.90;;;;;;5095742;28;20413;-81
2022/05/22 00:29:28;;;;;;;8.53;2.23;;;11.20;99.90;;;;;;5095399;28;20456;-82
2022/05/22 00:31:53;;;;;;;5.43;1.93;;;11.20;99.90;;;;;;5095285;28;20407;-83
2022/05/22 00:34:19;;;;;;;7.70;1.40;;;11.20;99.90;;;;;;5095625;28;20185;-84
2022/05/22 00:36:44;;;;;;;6.50;1.90;;;11.20;99.90;;;;;;5095510;28;20638;-82
2022/05/22 00:39:10;;;;;;;6.93;2.90;;;11.20;99.90;;;;;;5095524;28;20174;-83
2022/05/22 00:41:37;;;;;;;6.73;1.57;;;11.20;99.90;;;;;;5095361;28;20178;-83
2022/05/22 00:44:04;;;;;;;9.53;2.13;;;11.20;99.90;;;;;;5095279;28;20223;-83
2022/05/22 00:46:30;;;;;;;8.20;2.77;;;11.10;99.90;;;;;;5095048;28;20411;-82
2022/05/22 00:49:05;;;;;;;11.87;2.47;;;11.10;99.90;;;;;;5095330;28;20930;-80
2022/05/22 00:51:40;;;;;;;7.30;2.10;;;11.10;99.90;;;;;;5077155;28;20915;-81
2022/05/22 00:54:21;;;;;;;9.43;2.30;;;11.10;99.90;;;;;;5095194;28;20429;-84
2022/05/22 00:57:16;;;;;;;10.93;2.30;;;11.00;99.90;;;;;;5076527;28;20419;-81
2022/05/22 00:59:49;;;;;;;9.33;3.10;;;11.00;99.90;;;;;;5085623;28;20443;-80
2022/05/22 01:02:15;;;;;;;12.23;2.33;;;11.00;99.90;;;;;;5075152;28;20414;-84
2022/05/22 01:04:44;;;;;;;5.53;0.93;;;11.00;99.90;;;;;;5075500;28;20475;-83
2022/05/22 01:07:10;;;;;;;7.23;1.77;;;11.00;99.90;;;;;;5095029;28;20470;-83
2022/05/22 01:09:36;;;;;;;4.97;1.70;;;10.90;99.90;;;;;;5094880;28;20412;-79
2022/05/22 01:12:06;;;;;;;8.27;2.00;;;10.80;99.90;;;;;;5094889;28;20572;-78
2022/05/22 01:14:33;;;;;;;8.83;1.70;;;10.80;99.90;;;;;;5094858;28;20184;-81
2022/05/22 01:17:05;;;;;;;6.13;2.27;;;10.80;99.90;;;;;;5076269;28;20930;-84
2022/05/22 01:19:30;;;;;;;6.93;1.27;;;10.70;99.90;;;;;;5076447;28;20433;-82
2022/05/22 01:22:12;;;;;;;6.07;1.97;;;10.60;99.90;;;;;;5094654;28;20510;-83
2022/05/22 01:24:38;;;;;;;6.53;1.10;;;10.60;99.90;;;;;;5094519;28;20213;-83
2022/05/22 01:27:09;;;;;;;9.00;4.40;;;10.60;99.90;;;;;;5094532;28;20411;-82
2022/05/22 01:29:35;;;;;;;5.30;1.20;;;10.50;99.90;;;;;;5094263;28;20887;-82
2022/05/22 01:32:01;;;;;;;5.70;1.60;;;10.50;99.90;;;;;;5094109;28;20468;-82
2022/05/22 01:34:27;;;;;;;5.77;1.80;;;10.40;99.90;;;;;;5094337;28;20411;-83
2022/05/22 01:36:52;;;;;;;6.70;1.43;;;10.40;99.90;;;;;;5094420;28;20195;-83
2022/05/22 01:39:18;;;;;;;4.30;1.63;;;10.40;99.90;;;;;;5094330;28;20642;-83
2022/05/22 01:41:43;;;;;;;7.93;1.90;;;10.30;99.90;;;;;;5094270;28;20219;-81
2022/05/22 01:44:09;;;;;;;5.97;1.73;;;10.30;99.90;;;;;;5094229;28;20278;-83
2022/05/22 01:46:34;;;;;;;7.87;2.30;;;10.30;99.90;;;;;;5093806;28;20583;-83
2022/05/22 01:49:00;;;;;;;4.80;2.00;;;10.20;99.90;;;;;;5094011;28;20656;-83
2022/05/22 01:51:27;;;;;;;16.13;3.73;;;10.20;99.90;;;;;;5094194;28;20162;-82
2022/05/22 01:53:53;;;;;;;5.67;2.00;;;10.20;99.90;;;;;;5094069;28;20201;-80
2022/05/22 01:56:19;;;;;;;10.93;3.23;;;10.20;99.90;;;;;;5094035;28;20434;-82
2022/05/22 01:58:44;;;;;;;7.03;2.43;;;10.20;99.90;;;;;;5093953;28;20410;-82
2022/05/22 02:01:11;;;;;;;6.30;2.07;;;10.20;99.90;;;;;;5093602;28;20175;-81
2022/05/22 02:03:36;;;;;;;5.60;1.70;;;10.20;99.90;;;;;;5093834;28;20207;-79
2022/05/22 02:06:02;;;;;;;9.77;1.63;;;10.10;99.90;;;;;;5093943;28;20498;-79
2022/05/22 02:08:27;;;;;;;10.30;2.40;;;10.10;99.90;;;;;;5093936;28;20524;-79
2022/05/22 02:11:02;;;;;;;8.20;2.10;;;10.00;99.90;;;;;;5093850;28;20170;-79
2022/05/22 02:13:31;;;;;;;4.60;1.63;;;10.00;99.90;;;;;;5093807;28;20259;-82
2022/05/22 02:15:57;;;;;;;7.27;1.70;;;10.00;99.90;;;;;;5092811;28;20486;-83
2022/05/22 02:18:22;;;;;;;6.20;1.80;;;10.00;99.90;;;;;;5093676;28;20510;-79
2022/05/22 02:20:48;;;;;;;5.60;1.40;;;10.00;99.90;;;;;;5093559;28;20440;-85
2022/05/22 02:23:20;;;;;;;7.00;2.10;;;10.00;99.90;;;;;;5093508;28;20838;-79
2022/05/22 02:25:48;;;;;;;3.33;1.07;;;10.00;99.90;;;;;;5075552;28;20627;-79
2022/05/22 02:28:17;;;;;;;6.37;0.80;;;10.00;99.90;;;;;;5093519;28;20403;-85
2022/05/22 02:30:46;;;;;;;5.07;2.17;;;9.90;99.90;;;;;;5093146;28;20457;-81
2022/05/22 02:33:12;;;;;;;4.57;1.10;;;10.00;99.90;;;;;;5075141;28;20769;-80
2022/05/22 02:35:39;;;;;;;4.17;1.20;;;10.00;99.90;;;;;;5093285;28;20423;-82
2022/05/22 02:38:05;;;;;;;7.93;2.63;;;10.00;99.90;;;;;;5093253;28;20177;-82
2022/05/22 02:40:33;;;;;;;3.80;1.70;;;9.90;99.90;;;;;;5093347;28;20822;-82
2022/05/22 02:42:59;;;;;;;6.43;1.90;;;10.00;99.90;;;;;;5093089;28;20419;-82
2022/05/22 02:45:28;;;;;;;4.63;1.40;;;9.90;99.90;;;;;;5092867;28;20413;-81
2022/05/22 02:47:54;;;;;;;7.23;1.57;;;10.00;99.90;;;;;;5093134;28;20168;-81
2022/05/22 02:50:24;;;;;;;4.37;1.80;;;10.10;99.90;;;;;;5093026;28;20418;-80
2022/05/22 02:52:50;;;;;;;2.83;0.83;;;10.10;99.90;;;;;;5093101;28;20415;-82
2022/05/22 02:55:17;;;;;;;4.63;2.30;;;10.30;99.90;;;;;;5093079;28;20827;-82
2022/05/22 02:57:44;;;;;;;3.20;1.30;;;10.40;99.90;;;;;;5093100;28;20760;-82
2022/05/22 03:00:14;;;;;;;6.63;2.47;;;10.50;99.90;;;;;;5092656;28;20813;-82
2022/05/22 03:02:40;;;;;;;8.23;2.37;;;10.60;99.90;;;;;;5092957;28;20420;-81
2022/05/22 03:05:06;;;;;;;8.57;2.30;;;10.80;99.90;;;;;;5092828;28;20466;-80
2022/05/22 03:07:36;;;;;;;8.27;2.43;;;10.80;99.90;;;;;;5092874;28;20184;-83
2022/05/22 03:10:02;;;;;;;6.40;2.60;;;10.90;99.90;;;;;;5093026;28;20415;-84
2022/05/22 03:12:28;;;;;;;7.73;2.07;;;10.90;99.90;;;;;;5092897;28;20511;-81
2022/05/22 03:14:56;;;;;;;9.60;2.73;;;11.00;99.90;;;;;;5092510;28;20516;-79
2022/05/22 03:17:23;;;;;;;7.43;2.67;;;11.00;99.90;;;;;;5092946;28;20167;-81
2022/05/22 03:19:48;;;;;;;9.90;2.90;;;11.00;99.90;;;;;;5092944;28;20493;-81
2022/05/22 03:22:14;;;;;;;9.37;2.37;;;10.90;99.90;;;;;;5092843;28;20464;-79
2022/05/22 03:24:40;;;;;;;12.80;2.50;;;10.90;99.90;;;;;;5092587;28;20574;-81
2022/05/22 03:27:10;;;;;;;14.07;3.33;;;11.00;99.90;;;;;;5094870;28;20213;-79
2022/05/22 03:29:36;;;;;;;6.43;1.43;;;11.00;99.90;;;;;;5096614;28;20803;-81
2022/05/22 03:32:03;;;;;;;9.00;2.40;;;11.00;99.90;;;;;;5078465;28;20439;-81
2022/05/22 03:34:28;;;;;;;15.60;3.57;;;11.10;99.90;;;;;;5096767;28;20442;-80
2022/05/22 03:36:54;;;;;;;8.73;2.50;;;11.10;99.90;;;;;;5096681;28;20907;-81
2022/05/22 03:39:20;;;;;;;8.63;3.40;;;11.10;99.90;;;;;;5087027;28;20566;-81
2022/05/22 03:41:46;;;;;;;9.47;3.00;;;11.10;99.90;;;;;;5075603;28;20425;-79
2022/05/22 03:44:11;;;;;;;9.17;2.83;;;11.20;99.90;;;;;;5076014;28;20268;-82
2022/05/22 03:46:37;;;;;;;7.00;2.97;;;11.20;99.90;;;;;;5058085;28;20492;-83
2022/05/22 03:49:03;;;;;;;9.43;3.20;;;11.20;99.90;;;;;;5076012;28;20259;-83
2022/05/22 03:51:28;;;;;;;7.17;2.40;;;11.10;99.90;;;;;;5076088;28;20177;-82
2022/05/22 03:53:54;;;;;;;7.90;1.83;;;11.10;99.90;;;;;;5076069;28;20272;-81
2022/05/22 03:56:20;;;;;;;7.40;2.80;;;11.10;99.90;;;;;;5075998;28;20181;-81
2022/05/22 03:58:46;;;;;;;7.30;2.03;;;11.10;99.90;;;;;;5076012;28;20175;-82
2022/05/22 04:01:12;;;;;;;7.80;2.27;;;11.10;99.90;;;;;;5075652;28;20411;-83
2022/05/22 04:03:40;;;;;;;9.70;2.33;;;11.20;99.90;;;;;;5075938;28;20202;-82
2022/05/22 04:06:08;;;;;;;10.20;3.20;;;11.20;99.90;;;;;;5075877;28;20420;-84
2022/05/22 04:08:34;;;;;;;10.33;2.97;;;11.30;99.90;;;;;;5075766;28;20405;-82
2022/05/22 04:11:15;;;;;;;5.10;2.13;;;11.40;99.90;;;;;;5075665;28;20904;-82
2022/05/22 04:13:41;;;;;;;8.70;2.70;;;11.40;99.90;;;;;;5075760;28;20908;-83
2022/05/22 04:16:06;;;;;;;6.37;2.50;;;11.30;99.90;;;;;;5075433;28;20409;-84
2022/05/22 04:18:33;;;;;;;9.33;2.50;;;11.20;99.90;;;;;;5075637;28;20304;-85
2022/05/22 04:20:58;;;;;;;8.50;3.50;;;11.20;99.90;;;;;;5075713;28;20646;-85
2022/05/22 04:26:09;;;;;;;10.90;2.97;;;11.20;99.90;;;;;;5075805;28;20184;-85
2022/05/22 04:28:34;;;;;;;4.90;1.80;;;11.30;99.90;;;;;;5075571;28;20767;-86
2022/05/22 04:31:06;;;;;;;9.30;2.17;;;11.30;99.90;;;;;;5074938;28;20520;-84
2022/05/22 04:33:33;;;;;;;6.80;3.00;;;11.30;99.90;;;;;;5057593;28;20188;-81
2022/05/22 04:35:59;;;;;;;7.97;2.10;;;11.40;99.90;;;;;;5075385;28;20425;-83
2022/05/22 04:38:24;;;;;;;11.13;2.73;;;11.40;99.90;;;;;;5056713;28;20784;-83
2022/05/22 04:41:01;;;;;;;13.00;1.50;;;11.50;99.90;;;;;;5075401;28;20434;-83
2022/05/22 04:43:28;;;;;;;9.17;2.33;;;11.50;99.90;;;;;;5075229;28;20198;-82
2022/05/22 04:45:54;;;;;;;4.77;1.90;;;11.60;99.90;;;;;;5074732;28;20491;-83
2022/05/22 04:48:21;;;;;;;14.23;2.30;;;11.80;99.90;;;;;;5075230;28;20457;-83
2022/05/22 04:50:48;;;;;;;7.47;2.27;;;11.90;99.90;;;;;;5075190;28;20789;-83
2022/05/22 04:53:16;;;;;;;8.23;2.07;;;12.10;99.90;;;;;;5075079;28;20448;-83
2022/05/22 04:55:44;;;;;;;7.90;2.33;;;12.20;99.90;;;;;;5074914;28;20431;-83
2022/05/22 04:58:13;;;;;;;8.33;2.13;;;12.20;99.90;;;;;;5074744;28;20418;-82
2022/05/22 05:00:39;;;;;;;5.27;1.80;;;12.20;99.90;;;;;;5074644;28;20909;-84
2022/05/22 05:03:05;;;;;;;12.77;3.10;;;12.20;99.90;;;;;;5074856;28;20808;-83
2022/05/22 05:05:31;;;;;;;12.70;1.87;;;12.20;99.90;;;;;;5074880;28;20492;-83
2022/05/22 05:07:57;;;;;;;5.30;1.60;;;12.20;99.90;;;;;;5040170;28;20423;-84
2022/05/22 05:10:24;;;;;;;7.50;2.00;;;12.40;99.90;;;;;;5074674;28;20175;-80
2022/05/22 05:12:50;;;;;;;7.90;2.30;;;12.60;99.90;;;;;;5056769;28;20232;-82
2022/05/22 05:15:17;;;;;;;3.60;1.57;;;12.60;99.90;;;;;;5066075;28;20430;-82
2022/05/22 05:17:44;;;;;;;5.70;1.67;;;12.50;99.90;;;;;;5074523;28;20418;-82
2022/05/22 05:20:16;;;;;;;9.53;1.80;;;12.40;99.90;;;;;;5074564;28;20426;-83
2022/05/22 05:22:42;;;;;;;7.77;2.00;;;12.40;99.90;;;;;;5074516;28;20513;-83
2022/05/22 05:25:08;;;;;;;4.80;0.97;;;12.50;99.90;;;;;;5074348;28;20556;-83
2022/05/22 05:27:33;;;;;;;4.93;1.93;;;12.50;99.90;;;;;;5074424;28;20535;-83
2022/05/22 05:29:59;;;;;;;5.30;1.13;;;12.50;99.90;;;;;;5073695;28;20495;-82
2022/05/22 05:32:25;;;;;;;5.40;1.63;;;12.50;99.90;;;;;;5074219;28;20183;-84
2022/05/22 05:34:58;;;;;;;7.97;2.50;;;12.50;99.90;;;;;;5074205;28;20176;-82
2022/05/22 05:37:25;;;;;;;7.83;2.20;;;12.40;99.90;;;;;;5074135;28;20443;-82
2022/05/22 05:39:52;;;;;;;4.80;1.97;;;12.60;99.90;;;;;;5074183;28;20419;-82
2022/05/22 05:42:18;;;;;;;6.43;2.10;;;12.60;99.90;;;;;;5074007;28;20414;-81
2022/05/22 05:44:46;;;;;;;8.27;2.27;;;12.70;99.90;;;;;;5073685;28;20469;-78
2022/05/22 05:47:12;;;;;;;5.83;1.17;;;12.70;99.90;;;;;;5073873;28;20459;-81
2022/05/22 05:49:38;;;;;;;9.60;1.97;;;12.80;99.90;;;;;;5055086;28;20431;-82
2022/05/22 05:52:05;;;;;;;5.40;2.73;;;12.90;99.90;;;;;;5073761;28;20178;-83
2022/05/22 05:54:31;;;;;;;6.53;2.03;;;13.10;99.90;;;;;;5074038;28;20414;-83
2022/05/22 05:56:58;;;;;;;10.53;4.43;;;13.20;99.90;;;;;;5078684;28;20437;-82
2022/05/22 05:59:24;;;;;;;8.47;2.00;;;13.30;99.90;;;;;;5073667;28;20411;-84
2022/05/22 06:01:49;;;;;;;7.80;2.30;;;13.30;99.90;;;;;;5073713;28;20516;-83
2022/05/22 06:04:14;;;;;;;7.30;1.93;;;13.30;99.90;;;;;;5056166;28;21002;-84
2022/05/22 06:06:40;;;;;;;3.60;2.10;;;13.40;99.90;;;;;;5073557;28;20200;-85
2022/05/22 06:09:06;;;;;;;10.70;2.93;;;13.40;99.90;;;;;;5073631;28;20176;-84
2022/05/22 06:11:31;;;;;;;8.80;3.70;;;13.60;99.90;;;;;;5073574;28;20198;-85
2022/05/22 06:13:57;;;;;;;4.63;2.23;;;14.50;99.90;;;;;;5073434;28;20310;-84
2022/05/22 06:16:24;;;;;;;8.90;2.40;;;14.80;41.00;;;;;;5073030;28;20530;-83
2022/05/22 06:18:49;;;;;;;6.77;2.00;;;15.20;1.00;;;;;;5073214;28;20635;-85
2022/05/22 06:21:18;;;;;;;7.30;1.97;;;15.10;1.00;;;;;;5073346;28;20438;-84
2022/05/22 06:23:44;;;;;;;8.07;2.20;;;15.20;1.00;;;;;;5055382;28;20210;-84
2022/05/22 06:26:12;;;;;;;8.17;2.30;;;15.20;1.00;;;;;;5073328;28;20496;-84
2022/05/22 06:28:38;;;;;;;5.17;2.33;;;14.90;1.00;;;;;;5073474;28;20419;-80
2022/05/22 06:31:05;;;;;;;8.03;1.70;;;14.60;1.00;;;;;;5072837;28;20452;-87
2022/05/22 06:33:34;;;;;;;7.10;1.17;;;14.30;31.20;;;;;;5073280;28;20496;-84
2022/05/22 06:36:06;;;;;;;6.57;1.33;;;14.20;50.50;;;;;;5073300;28;20427;-79
2022/05/22 06:41:16;;;;;;;4.03;0.90;;;14.30;99.90;;;;;;5073549;28;21020;-84
2022/05/22 06:43:41;;;;;;;10.40;1.97;;;14.50;99.90;;;;;;5056759;28;20465;-85
2022/05/22 06:46:07;;;;;;;7.50;2.47;;;14.60;51.50;;;;;;5072673;28;20211;-83
2022/05/22 06:48:35;;;;;;;10.93;1.40;;;14.60;52.50;;;;;;5073020;28;20180;-83
2022/05/22 06:51:04;;;;;;;9.40;1.87;;;15.30;1.00;;;;;;5072941;28;20249;-86
2022/05/22 06:53:30;;;;;;;2.50;1.33;;;15.70;99.90;;;;;;5071638;28;20424;-85
2022/05/22 06:55:56;;;;;;;6.30;1.97;;;15.60;99.90;;;;;;5072939;28;20425;-84
2022/05/22 06:58:21;;;;;;;6.50;2.27;;;15.80;1.00;;;;;;5072937;28;20270;-84
2022/05/22 07:00:51;;;;;;;5.40;1.43;;;15.60;99.90;;;;;;5072319;28;20255;-85
2022/05/22 07:03:16;;;;;;;7.77;1.27;;;15.50;1.00;;;;;;5054781;28;20279;-83
2022/05/22 07:05:42;;;;;;;9.83;1.50;;;15.40;99.90;;;;;;5072957;28;21006;-84
2022/05/22 07:08:09;;;;;;;5.20;1.43;;;15.60;99.90;;;;;;5072903;28;20188;-84
2022/05/22 07:13:19;;;;;;;6.17;1.57;;;16.10;1.00;;;;;;5073586;28;20902;-85
2022/05/22 07:15:46;;;;;;;9.30;1.50;;;16.10;1.00;;;;;;5077798;28;20546;-85
2022/05/22 07:18:11;;;;;;;6.87;1.20;;;16.50;99.90;;;;;;5061625;28;20789;-86
2022/05/22 07:20:37;;;;;;;5.17;1.37;;;16.30;1.00;;;;;;5070499;28;20427;-86
2022/05/22 07:23:02;;;;;;;11.00;2.60;;;16.30;99.90;;;;;;5071985;28;20214;-84
2022/05/22 07:25:28;;;;;;;10.83;1.70;;;16.10;1.00;;;;;;5072461;28;20181;-87
2022/05/22 07:27:54;;;;;;;7.17;1.73;;;16.10;99.90;;;;;;5072291;28;20167;-86
2022/05/22 07:30:19;;;;;;;6.53;2.80;;;16.40;99.90;;;;;;5072458;28;20229;-85
2022/05/22 07:32:45;;;;;;;3.40;1.60;;;17.10;1.00;;;;;;5072675;28;20172;-84
2022/05/22 07:35:11;;;;;;;5.83;2.20;;;17.30;99.90;;;;;;5072521;28;20262;-84
2022/05/22 07:37:36;;;;;;;6.70;1.20;;;17.10;99.90;;;;;;5072538;28;20176;-83
2022/05/22 07:40:05;;;;;;;3.20;1.40;;;16.90;99.90;;;;;;5072494;28;20908;-85
2022/05/22 07:42:31;;;;;;;5.60;1.87;;;16.60;99.90;;;;;;5072124;28;20237;-84
2022/05/22 07:44:56;;;;;;;5.10;1.57;;;16.40;99.90;;;;;;5072164;28;21029;-81
2022/05/22 07:47:22;;;;;;;8.70;2.87;;;16.90;99.90;;;;;;5073158;28;20168;-90
2022/05/22 07:52:41;;;;;;;9.20;2.00;;;17.10;71.50;;;;;;5073831;28;20262;-91
2022/05/22 07:55:14;;;;;;;5.47;2.27;;;21.30;99.90;;;;;;5073125;28;20403;-91
2022/05/22 07:57:42;;;;;;;3.10;1.47;;;22.50;99.90;;;;;;5055298;28;20803;-93
2022/05/22 08:00:10;;;;;;;2.70;1.03;;;22.60;99.90;;;;;;5072904;28;21024;-90
2022/05/22 08:02:36;;;;;;;6.27;1.60;;;20.60;99.90;;;;;;5073057;28;20495;-92
2022/05/22 08:05:01;;;;;;;3.87;0.83;;;18.90;99.90;;;;;;5072989;28;20473;-87
2022/05/22 08:07:27;;;;;;;6.63;0.83;;;18.80;1.00;;;;;;5073571;28;20555;-91
2022/05/22 08:09:53;;;;;;;3.93;1.17;;;20.60;99.90;;;;;;5073032;28;20165;-88
2022/05/22 08:12:18;;;;;;;3.93;0.90;;;20.20;99.90;;;;;;5073247;28;20672;-89
2022/05/22 08:14:47;;;;;;;3.23;0.50;;;19.10;99.90;;;;;;5075393;28;20172;-89
2022/05/22 08:17:14;;;;;;;3.80;1.10;;;17.80;99.90;;;;;;5076334;28;20168;-92
2022/05/22 08:19:40;;;;;;;2.67;0.50;;;17.10;1.00;;;;;;5042216;28;20513;-90
2022/05/22 08:22:05;;;;;;;2.30;0.50;;;16.80;99.90;;;;;;5076205;28;20851;-90
2022/05/22 08:24:31;;;;;;;2.00;0.43;;;16.60;99.90;;;;;;5076574;28;20578;-90
2022/05/22 08:26:56;;;;;;;5.53;0.77;;;16.70;1.00;;;;;;5076325;28;20585;-90
2022/05/22 08:29:22;;;;;;;1.90;0.50;;;17.10;1.00;;;;;;5075567;28;20174;-88
2022/05/22 08:31:48;;;;;;;3.70;0.97;;;21.40;99.90;;;;;;5058397;28;20671;-89
2022/05/22 08:34:14;;;;;;;2.47;0.40;;;22.50;99.90;;;;;;5076047;28;20664;-96
2022/05/22 08:36:40;;;;;;;3.03;0.50;;;21.00;99.90;;;;;;5076075;28;20172;-90
2022/05/22 08:39:06;;;;;;;2.30;0.50;;;19.30;99.90;;;;;;5057747;28;20472;-91
2022/05/22 08:41:42;;;;;;;3.20;0.70;;;18.60;99.90;;;;;;5075959;28;20457;-89
2022/05/22 08:44:24;;;;;;;2.00;0.30;;;18.30;99.90;;;;;;5076103;28;20305;-92
2022/05/22 08:47:03;;;;;;;5.20;1.03;;;18.00;99.90;;;;;;5075686;28;20449;-89
2022/05/22 08:49:47;;;;;;;4.00;0.60;;;20.30;1.00;;;;;;5057725;28;20421;-89
2022/05/22 08:52:40;;;;;;;1.17;0.30;;;22.50;99.90;;;;;;5075335;28;20419;-87
2022/05/22 08:55:19;;;;;;;1.73;0.40;;;23.10;99.90;;;;;;5057395;28;20416;-91
2022/05/22 09:00:30;;;;;;;4.30;0.83;;;20.50;99.90;;;;;;5075129;28;20396;-89
2022/05/22 09:03:05;;;;;;;2.07;0.37;;;20.70;99.90;;;;;;5057508;28;20417;-91
2022/05/22 09:05:35;;;;;;;2.50;0.53;;;22.30;99.90;;;;;;5075907;28;20441;-88
2022/05/22 09:08:26;;;;;;;1.53;0.23;;;21.90;99.90;;;;;;5075547;28;20446;-85
2022/05/22 09:11:09;;;;;;;4.83;1.07;;;19.60;99.90;;;;;;5063956;28;20958;-86
2022/05/22 09:13:39;;;;;;;3.50;0.60;;;18.50;99.90;;;;;;5075581;28;20477;-90
2022/05/22 09:16:19;;;;;;;2.97;0.50;;;20.80;99.90;;;;;;5075964;28;20819;-89
2022/05/22 09:19:07;;;;;;;3.83;0.53;;;23.30;99.90;;;;;;5057757;28;20770;-89
2022/05/22 09:21:41;;;;;;;2.33;0.60;;;24.30;99.90;;;;;;5074944;28;20407;-88
2022/05/22 09:24:29;;;;;;;2.93;0.53;;;25.10;69.80;;;;;;5056451;28;20471;-89
2022/05/22 09:27:08;;;;;;;4.63;0.30;;;25.40;50.20;;;;;;5075505;28;20412;-89
2022/05/22 09:30:18;;;;;;;3.43;0.50;;;22.90;33.30;;;;;;5074363;28;20849;-91
2022/05/22 09:33:13;;;;;;;5.00;1.20;;;20.80;46.60;;;;;;5023900;28;20415;-89
2022/05/22 09:35:50;;;;;;;3.80;0.40;;;19.80;73.40;;;;;;5036448;28;20407;-86
2022/05/22 09:38:33;;;;;;;4.40;0.93;;;19.00;99.90;;;;;;5066660;28;21159;-90
2022/05/22 09:41:52;;;;;;;2.40;0.60;;;18.80;99.90;;;;;;5070538;28;20407;-86
2022/05/22 09:44:52;;;;;;;3.97;0.50;;;22.70;99.90;;;;;;5010870;28;20506;-87
2022/05/22 09:47:40;;;;;;;4.20;0.77;;;21.20;60.70;;;;;;5072898;28;20435;-83
2022/05/22 09:50:26;;;;;;;3.83;1.13;;;20.10;94.60;;;;;;5058519;28;20788;-84
2022/05/22 09:52:57;;;;;;;3.90;0.47;;;20.80;99.90;;;;;;5069206;28;20415;-91
2022/05/22 09:55:28;;;;;;;4.00;0.83;;;23.50;88.20;;;;;;5076046;28;20490;-94
2022/05/22 09:57:54;;;;;;;3.37;0.37;;;24.70;63.00;;;;;;5062403;28;20415;-88
2022/05/22 10:00:32;;;;;;;2.20;0.30;;;25.40;48.10;;;;;;5073798;28;20441;-91
2022/05/22 10:03:25;;;;;;;3.53;0.40;;;25.00;41.00;;;;;;5074542;28;20532;-91
2022/05/22 10:06:18;;;;;;;3.93;0.40;;;25.40;32.70;;;;;;5073088;28;20930;-91
2022/05/22 10:09:24;;;;;;;2.87;0.60;;;24.00;25.70;;;;;;5077912;28;20439;-94
2022/05/22 10:12:18;;;;;;;1.93;0.30;;;21.90;16.10;;;;;;5078198;28;20414;-92
2022/05/22 10:15:11;;;;;;;3.73;0.57;;;22.10;30.00;;;;;;5075879;28;20391;-94
2022/05/22 10:17:54;;;;;;;3.60;0.20;;;24.50;37.20;;;;;;5075280;28;20763;-93
2022/05/22 10:20:47;;;;;;;1.60;0.20;;;24.90;24.50;;;;;;5078262;28;20495;-93
2022/05/22 10:23:40;;;;;;;1.30;0.30;;;24.00;21.90;;;;;;5080459;28;20422;-95
2022/05/22 10:26:43;;;;;;;4.87;0.97;;;22.10;10.10;;;;;;5085717;28;20431;-94
2022/05/22 10:29:22;;;;;;;6.13;1.83;;;21.10;25.70;;;;;;5079629;28;20415;-94
2022/05/22 10:32:10;;;;;;;1.87;0.20;;;21.00;22.00;;;;;;5064648;28;20784;-95
2022/05/22 10:34:59;;;;;;;2.23;0.50;;;20.20;34.70;;;;;;5081395;28;20498;-94
2022/05/22 10:37:44;;;;;;;5.40;0.60;;;19.50;44.60;;;;;;5078673;28;20423;-93
2022/05/22 10:40:15;;;;;;;2.20;0.50;;;19.10;96.40;;;;;;5076130;28;20423;-94
2022/05/22 10:42:47;;;;;;;2.37;0.30;;;20.20;91.20;;;;;;5058569;28;20434;-94
2022/05/22 10:45:35;;;;;;;4.30;0.33;;;22.70;57.20;;;;;;5077640;28;20561;-95
2022/05/22 10:48:21;;;;;;;3.87;0.40;;;23.40;38.90;;;;;;5079157;28;20447;-93
2022/05/22 10:51:16;;;;;;;3.10;0.70;;;21.80;38.60;;;;;;5081938;28;20486;-92
2022/05/22 10:53:57;;;;;;;4.27;1.27;;;20.20;25.50;;;;;;5044956;28;20499;-85
2022/05/22 10:56:26;;;;;;;2.47;0.60;;;19.40;29.20;;;;;;5074794;28;20422;-82
2022/05/22 10:59:04;;;;;;;1.90;0.20;;;19.80;40.00;;;;;;5073729;28;20502;-90
2022/05/22 11:01:35;;;;;;;1.07;0.30;;;22.00;30.00;;;;;;5075886;28;20460;-92
2022/05/22 11:04:08;;;;;;;1.03;0.30;;;21.50;24.40;;;;;;5075243;28;20590;-94
2022/05/22 11:06:36;;;;;;;3.30;0.50;;;23.00;26.80;;;;;;5078915;28;20956;-94
2022/05/22 11:09:03;;;;;;;3.70;0.57;;;24.30;32.00;;;;;;5075435;28;20422;-91
2022/05/22 11:11:32;;;;;;;2.77;0.30;;;25.00;23.70;;;;;;5076396;28;20412;-90
2022/05/22 11:14:13;;;;;;;2.00;0.47;;;24.00;15.30;;;;;;5073206;28;20412;-92
2022/05/22 11:16:40;;;;;;;3.27;0.50;;;22.20;22.10;;;;;;5074256;28;20977;-95
2022/05/22 11:19:24;;;;;;;2.70;1.00;;;21.90;24.10;;;;;;5075450;28;20566;-95
2022/05/22 11:22:08;;;;;;;5.13;0.90;;;23.60;26.40;;;;;;5074266;28;20407;-93
2022/05/22 11:24:59;;;;;;;4.43;0.60;;;24.70;28.30;;;;;;5073455;28;20467;-92
2022/05/22 11:27:40;;;;;;;1.60;0.33;;;25.10;25.40;;;;;;5060318;28;20513;-92
2022/05/22 11:30:15;;;;;;;2.10;0.40;;;25.10;18.20;;;;;;5072349;28;20565;-90
2022/05/22 11:33:07;;;;;;;1.53;0.50;;;25.10;14.40;;;;;;5073210;28;20418;-85
2022/05/22 11:35:46;;;;;;;4.27;0.60;;;25.20;10.80;;;;;;5072839;28;20407;-90
2022/05/22 11:38:29;;;;;;;4.00;0.37;;;25.20;8.70;;;;;;5072595;28;20411;-88
2022/05/22 11:41:21;;;;;;;2.07;0.50;;;25.00;2.60;;;;;;5054866;28;20774;-88
2022/05/22 11:44:05;;;;;;;1.03;0.30;;;25.10;3.10;;;;;;5072300;28;20475;-90
2022/05/22 11:46:49;;;;;;;2.00;0.40;;;25.80;7.20;;;;;;5072522;28;20410;-89
2022/05/22 11:49:52;;;;;;;2.83;0.43;;;25.50;1.00;;;;;;5088258;28;20447;-87
2022/05/22 11:55:22;;;;;;;2.60;0.67;;;23.70;1.00;;;;;;5076906;28;20552;-84
2022/05/22 11:58:03;;;;;;;2.37;0.30;;;24.40;1.00;;;;;;5075685;28;20422;-85
2022/05/22 12:01:01;;;;;;;1.33;0.40;;;24.70;1.00;;;;;;5050860;28;20427;-84
2022/05/22 12:03:56;;;;;;;1.70;0.73;;;25.40;1.00;;;;;;5068746;28;20468;-87
2022/05/22 12:06:42;;;;;;;1.33;0.23;;;25.40;1.00;;;;;;5074862;28;20765;-84
2022/05/22 12:09:23;;;;;;;1.10;0.30;;;25.70;1.00;;;;;;5074119;28;20486;-84
2022/05/22 12:12:19;;;;;;;2.13;0.27;;;26.10;1.00;;;;;;5073721;28;21069;-83
2022/05/22 12:15:14;;;;;;;2.37;0.60;;;25.80;1.00;;;;;;5069037;28;20941;-84
2022/05/22 12:17:49;;;;;;;1.87;0.30;;;25.40;1.00;;;;;;5067851;28;20406;-83
2022/05/22 12:20:26;;;;;;;1.30;0.23;;;25.40;1.00;;;;;;5060905;28;20417;-87
2022/05/22 12:23:21;;;;;;;4.37;0.87;;;25.60;1.00;;;;;;5074148;28;20403;-84
2022/05/22 12:25:59;;;;;;;1.90;0.67;;;25.90;1.00;;;;;;5073084;28;20430;-85
2022/05/22 12:28:39;;;;;;;1.83;0.30;;;25.80;1.00;;;;;;5072068;28;20919;-85
2022/05/22 12:31:09;;;;;;;2.63;0.33;;;24.90;1.00;;;;;;5072519;28;20442;-85
2022/05/22 12:33:41;;;;;;;2.30;0.30;;;23.60;1.00;;;;;;5071012;28;20475;-87
2022/05/22 12:36:07;;;;;;;1.30;0.40;;;22.80;1.00;;;;;;5048760;28;20803;-86
2022/05/22 12:38:41;;;;;;;2.50;0.53;;;24.10;1.00;;;;;;5075093;28;20411;-85
2022/05/22 12:41:34;;;;;;;2.23;0.43;;;23.90;1.00;;;;;;5075194;28;20407;-83
2022/05/22 12:44:01;;;;;;;1.13;0.30;;;24.20;1.00;;;;;;5028508;28;20524;-85
2022/05/22 12:46:26;;;;;;;1.67;0.33;;;24.40;1.00;;;;;;5074958;28;21106;-84
2022/05/22 12:49:19;;;;;;;2.20;0.47;;;23.60;1.00;;;;;;5056974;28;20423;-86
2022/05/22 12:51:55;;;;;;;1.83;0.40;;;23.00;1.00;;;;;;5074904;28;20226;-83
2022/05/22 12:54:25;;;;;;;2.80;0.60;;;22.70;1.00;;;;;;5074940;28;20915;-84
2022/05/22 12:56:51;;;;;;;2.13;0.30;;;22.40;1.00;;;;;;5074882;28;20840;-83
2022/05/22 12:59:27;;;;;;;2.80;0.70;;;22.20;1.00;;;;;;5074381;28;20884;-91
2022/05/22 13:01:58;;;;;;;2.63;0.30;;;22.10;1.00;;;;;;5074957;28;20981;-86
2022/05/22 13:04:52;;;;;;;1.60;0.50;;;22.10;1.00;;;;;;5074935;28;20467;-83
2022/05/22 13:07:29;;;;;;;2.50;0.53;;;23.40;1.00;;;;;;5074900;28;20443;-89
2022/05/22 13:09:54;;;;;;;0.80;0.30;;;23.60;1.00;;;;;;5074697;28;20431;-88
2022/05/22 13:12:31;;;;;;;2.20;0.40;;;23.10;1.00;;;;;;5074868;28;20411;-84
2022/05/22 13:15:01;;;;;;;3.43;0.70;;;22.60;1.00;;;;;;5074625;28;20184;-87
2022/05/22 13:17:41;;;;;;;3.60;0.50;;;22.20;1.00;;;;;;5056758;28;20509;-86
2022/05/22 13:20:21;;;;;;;1.67;0.50;;;22.00;1.00;;;;;;5056857;28;20939;-84
2022/05/22 13:22:47;;;;;;;3.83;0.97;;;21.60;1.00;;;;;;5056811;28;20773;-89
2022/05/22 13:25:43;;;;;;;0.80;0.30;;;21.50;1.00;;;;;;5056693;28;20565;-87
2022/05/22 13:28:45;;;;;;;2.30;0.20;;;21.20;1.00;;;;;;5056190;28;20512;-84